Time;durP1;ratioP1;P1;durP2;ratioP2;P2;SDS_P1;SDS_P2;PMS_P1;PMS_P2;Temp;Humidity;BMP_temperature;BMP_pressure;BME280_temperature;BME280_humidity;BME280_pressure;Samples;Min_cycle;Max_cycle;Signal;HPM_P1;HPM_P2
2023/08/14 00:01:03;;;;;;;10.60;5.80;;;15.10;99.90;;;;;;5067364;28;20040;-72
2023/08/14 00:03:30;;;;;;;12.65;5.57;;;15.10;99.90;;;;;;5057487;28;270734;-72
2023/08/14 00:05:56;;;;;;;15.82;6.07;;;15.00;99.90;;;;;;5059762;28;20045;-72
2023/08/14 00:08:22;;;;;;;10.25;5.55;;;15.00;99.90;;;;;;5054911;28;262586;-73
2023/08/14 00:10:48;;;;;;;11.50;6.35;;;15.00;99.90;;;;;;5065864;28;20055;-73
2023/08/14 00:13:19;;;;;;;13.48;6.82;;;15.00;99.90;;;;;;5063194;28;273320;-73
2023/08/14 00:15:46;;;;;;;15.57;7.15;;;15.00;99.90;;;;;;5058236;28;20068;-73
2023/08/14 00:18:12;;;;;;;10.27;5.32;;;15.00;99.90;;;;;;5062443;28;273735;-73
2023/08/14 00:20:38;;;;;;;11.25;6.07;;;14.90;99.90;;;;;;5072137;28;20079;-74
2023/08/14 00:23:04;;;;;;;12.73;6.28;;;14.90;99.90;;;;;;5054748;28;176330;-74
2023/08/14 00:25:30;;;;;;;10.40;6.10;;;14.90;99.90;;;;;;5068300;28;20033;-73
2023/08/14 00:27:56;;;;;;;13.77;6.68;;;14.90;99.90;;;;;;5056953;28;272771;-73
2023/08/14 00:30:22;;;;;;;10.15;5.30;;;14.90;99.90;;;;;;5058915;28;20055;-73
2023/08/14 00:32:48;;;;;;;13.35;6.13;;;14.80;99.90;;;;;;5039174;28;111026;-74
2023/08/14 00:35:15;;;;;;;12.45;5.47;;;14.80;99.90;;;;;;5070852;28;20032;-72
2023/08/14 00:37:46;;;;;;;13.57;7.25;;;14.80;99.90;;;;;;5056157;28;103293;-72
2023/08/14 00:40:13;;;;;;;14.50;7.38;;;14.70;99.90;;;;;;5057738;28;20048;-72
2023/08/14 00:42:42;;;;;;;13.50;6.80;;;14.70;99.90;;;;;;5054920;28;136688;-72
2023/08/14 00:45:09;;;;;;;13.05;6.40;;;14.70;99.90;;;;;;5048703;28;20056;-72
2023/08/14 00:47:36;;;;;;;11.48;7.10;;;14.70;99.90;;;;;;5050405;28;190764;-72
2023/08/14 00:50:04;;;;;;;13.75;7.18;;;14.70;99.90;;;;;;5055146;28;20056;-71
2023/08/14 00:52:32;;;;;;;12.07;7.13;;;14.70;99.90;;;;;;5019882;28;99999;-72
2023/08/14 00:55:03;;;;;;;14.13;8.00;;;14.70;99.90;;;;;;5048180;28;20522;-74
2023/08/14 00:57:30;;;;;;;15.50;6.80;;;14.70;99.90;;;;;;5037616;28;87213;-72
2023/08/14 00:59:56;;;;;;;11.50;6.35;;;14.70;99.90;;;;;;5059222;28;20053;-70
2023/08/14 01:02:24;;;;;;;14.80;7.75;;;14.70;99.90;;;;;;5036297;28;163300;-71
2023/08/14 01:04:50;;;;;;;15.05;7.57;;;14.70;99.90;;;;;;5068954;28;20068;-72
2023/08/14 01:07:17;;;;;;;11.45;6.18;;;14.60;99.90;;;;;;5054514;28;100106;-72
2023/08/14 01:09:43;;;;;;;13.20;6.78;;;14.60;99.90;;;;;;5066095;28;20049;-72
2023/08/14 01:12:38;;;;;;;14.25;7.97;;;14.60;99.90;;;;;;5053385;28;267186;-72
2023/08/14 01:15:15;;;;;;;15.90;7.93;;;14.60;99.90;;;;;;5064566;28;20052;-72
2023/08/14 01:17:48;;;;;;;15.75;7.60;;;14.50;99.90;;;;;;5058150;28;267058;-72
2023/08/14 01:20:17;;;;;;;15.63;8.85;;;14.50;99.90;;;;;;5060811;28;20045;-74
2023/08/14 01:22:46;;;;;;;14.65;8.63;;;14.50;99.90;;;;;;5054720;28;275875;-73
2023/08/14 01:25:37;;;;;;;14.23;8.13;;;14.40;99.90;;;;;;5056385;28;20048;-73
2023/08/14 01:28:05;;;;;;;15.15;7.35;;;14.50;99.90;;;;;;5062292;28;274080;-72
2023/08/14 01:30:31;;;;;;;14.25;8.45;;;14.40;99.90;;;;;;5075724;28;20415;-73
2023/08/14 01:32:58;;;;;;;17.15;8.93;;;14.40;99.90;;;;;;5047867;28;278971;-72
2023/08/14 01:35:26;;;;;;;13.68;8.13;;;14.40;99.90;;;;;;5070345;28;20461;-72
2023/08/14 01:38:10;;;;;;;15.93;8.60;;;14.40;99.90;;;;;;5063007;28;273798;-73
2023/08/14 01:40:45;;;;;;;13.70;7.53;;;14.30;99.90;;;;;;5066882;28;20063;-72
2023/08/14 01:43:21;;;;;;;15.45;9.50;;;14.30;99.90;;;;;;5052402;28;263404;-72
2023/08/14 01:45:48;;;;;;;14.15;8.88;;;14.30;99.90;;;;;;5064115;28;20095;-71
2023/08/14 01:48:15;;;;;;;12.95;8.68;;;14.30;99.90;;;;;;5060708;28;267987;-72
2023/08/14 01:50:42;;;;;;;16.10;9.45;;;14.30;99.90;;;;;;5063174;28;20499;-72
2023/08/14 01:53:09;;;;;;;20.20;8.65;;;14.20;99.90;;;;;;5039261;28;263550;-73
2023/08/14 01:55:35;;;;;;;15.93;9.13;;;14.30;99.90;;;;;;5072449;28;20410;-72
2023/08/14 01:58:01;;;;;;;15.13;9.55;;;14.20;99.90;;;;;;5052383;28;103720;-72
2023/08/14 02:00:29;;;;;;;15.30;10.27;;;14.20;99.90;;;;;;5069941;28;20059;-72
2023/08/14 02:02:57;;;;;;;16.02;9.85;;;14.20;99.90;;;;;;5056689;28;258305;-72
2023/08/14 02:05:23;;;;;;;15.25;8.52;;;14.10;99.90;;;;;;5068334;28;20044;-72
2023/08/14 02:07:49;;;;;;;18.83;10.90;;;14.20;99.90;;;;;;5049537;28;252956;-72
2023/08/14 02:10:15;;;;;;;20.23;11.30;;;14.10;99.90;;;;;;5070407;28;20048;-73
2023/08/14 02:12:41;;;;;;;18.20;10.25;;;14.10;99.90;;;;;;5046776;28;101507;-71
2023/08/14 02:15:07;;;;;;;13.90;9.77;;;14.10;99.90;;;;;;5049339;28;20583;-72
2023/08/14 02:17:33;;;;;;;13.80;9.13;;;14.10;99.90;;;;;;5037956;28;55207;-71
2023/08/14 02:20:00;;;;;;;14.65;9.38;;;14.20;99.90;;;;;;5065444;28;20044;-72
2023/08/14 02:22:26;;;;;;;17.98;9.63;;;14.10;99.90;;;;;;5051604;28;264673;-72
2023/08/14 02:24:52;;;;;;;14.15;9.45;;;14.10;99.90;;;;;;5070551;28;20048;-73
2023/08/14 02:27:18;;;;;;;13.90;9.48;;;14.10;99.90;;;;;;5049641;28;257616;-72
2023/08/14 02:29:45;;;;;;;17.73;10.23;;;14.10;99.90;;;;;;5078345;28;20056;-72
2023/08/14 02:32:11;;;;;;;18.25;11.32;;;14.10;99.90;;;;;;5048321;28;196145;-72
2023/08/14 02:34:46;;;;;;;14.55;10.50;;;14.10;99.90;;;;;;5039406;28;20049;-72
2023/08/14 02:37:13;;;;;;;15.77;9.65;;;14.20;99.90;;;;;;5041380;28;256427;-72
2023/08/14 02:39:40;;;;;;;16.02;11.10;;;14.20;99.90;;;;;;5080498;28;20052;-73
2023/08/14 02:42:06;;;;;;;19.65;12.13;;;14.20;99.90;;;;;;5054593;28;253621;-73
2023/08/14 02:44:33;;;;;;;16.83;10.65;;;14.20;99.90;;;;;;5055733;28;20515;-72
2023/08/14 02:46:59;;;;;;;18.73;10.57;;;14.20;99.90;;;;;;5052086;28;275281;-72
2023/08/14 02:49:26;;;;;;;22.17;11.30;;;14.20;99.90;;;;;;5057359;28;20056;-73
2023/08/14 02:51:52;;;;;;;16.90;10.93;;;14.20;99.90;;;;;;5033842;28;256898;-72
2023/08/14 02:54:18;;;;;;;19.13;10.82;;;14.20;99.90;;;;;;5065985;28;20052;-73
2023/08/14 02:56:44;;;;;;;18.23;11.32;;;14.20;99.90;;;;;;5051536;28;271180;-72
2023/08/14 02:59:10;;;;;;;21.90;12.07;;;14.10;99.90;;;;;;5057367;28;20514;-73
2023/08/14 03:01:36;;;;;;;22.17;13.60;;;14.20;99.90;;;;;;5055992;28;262229;-72
2023/08/14 03:04:02;;;;;;;23.17;13.75;;;14.30;99.90;;;;;;5058592;28;20466;-72
2023/08/14 03:06:31;;;;;;;23.17;13.80;;;14.40;99.90;;;;;;5068469;28;20051;-72
2023/08/14 03:08:58;;;;;;;19.67;12.93;;;14.40;99.90;;;;;;5039033;28;155230;-72
2023/08/14 03:11:24;;;;;;;18.27;12.27;;;14.40;99.90;;;;;;5068751;28;20423;-73
2023/08/14 03:13:51;;;;;;;20.33;13.23;;;14.30;99.90;;;;;;5047953;28;77554;-73
2023/08/14 03:16:17;;;;;;;20.10;12.77;;;14.30;99.90;;;;;;5064640;28;20049;-72
2023/08/14 03:18:43;;;;;;;22.40;13.43;;;14.30;99.90;;;;;;5050316;28;272528;-72
2023/08/14 03:21:09;;;;;;;24.63;14.50;;;14.30;99.90;;;;;;5067673;28;20602;-72
2023/08/14 03:23:36;;;;;;;23.80;15.27;;;14.40;99.90;;;;;;5052962;28;274693;-72
2023/08/14 03:26:02;;;;;;;20.00;13.70;;;14.40;99.90;;;;;;5069296;28;20388;-73
2023/08/14 03:28:28;;;;;;;22.08;13.73;;;14.40;99.90;;;;;;5052381;28;264063;-72
2023/08/14 03:30:55;;;;;;;18.60;12.80;;;14.40;99.90;;;;;;5066725;28;20515;-72
2023/08/14 03:33:21;;;;;;;22.67;13.70;;;14.40;99.90;;;;;;5053015;28;254484;-72
2023/08/14 03:35:47;;;;;;;23.13;13.77;;;14.30;99.90;;;;;;5063538;28;20521;-73
2023/08/14 03:38:13;;;;;;;19.80;12.77;;;14.30;99.90;;;;;;5063516;28;275785;-72
2023/08/14 03:40:39;;;;;;;21.27;12.77;;;14.30;99.90;;;;;;5072187;28;20065;-72
2023/08/14 03:43:05;;;;;;;18.65;12.05;;;14.30;99.90;;;;;;5057094;28;271783;-72
2023/08/14 03:45:31;;;;;;;23.38;13.88;;;14.30;99.90;;;;;;5070242;28;20052;-72
2023/08/14 03:47:57;;;;;;;21.48;13.30;;;14.30;99.90;;;;;;5060967;28;261616;-72
2023/08/14 03:50:23;;;;;;;21.77;13.82;;;14.30;99.90;;;;;;5072468;28;20519;-72
2023/08/14 03:52:49;;;;;;;20.25;12.50;;;14.20;99.90;;;;;;5033314;28;127737;-73
2023/08/14 03:55:16;;;;;;;18.38;12.38;;;14.20;99.90;;;;;;5065812;28;20059;-72
2023/08/14 03:57:42;;;;;;;18.08;12.23;;;14.30;99.90;;;;;;5050012;28;275869;-72
2023/08/14 04:00:08;;;;;;;19.80;12.55;;;14.30;99.90;;;;;;5071636;28;20060;-72
2023/08/14 04:02:34;;;;;;;22.35;12.25;;;14.20;99.90;;;;;;5042467;28;67252;-72
2023/08/14 04:05:00;;;;;;;20.67;12.20;;;14.20;99.90;;;;;;5060883;28;20052;-72
2023/08/14 04:07:26;;;;;;;22.60;13.63;;;14.20;99.90;;;;;;5046777;28;262385;-72
2023/08/14 04:09:52;;;;;;;19.58;11.70;;;14.20;99.90;;;;;;5068588;28;20639;-72
2023/08/14 04:12:19;;;;;;;23.90;11.88;;;14.20;99.90;;;;;;5053798;28;37791;-72
2023/08/14 04:14:48;;;;;;;22.00;12.70;;;14.20;99.90;;;;;;5074916;28;20064;-72
2023/08/14 04:17:14;;;;;;;21.50;12.25;;;14.20;99.90;;;;;;5056807;28;73363;-72
2023/08/14 04:19:40;;;;;;;19.70;12.80;;;14.10;99.90;;;;;;5077923;28;20067;-73
2023/08/14 04:22:06;;;;;;;19.00;12.65;;;14.10;99.90;;;;;;5055391;28;39556;-72
2023/08/14 04:24:32;;;;;;;23.17;12.32;;;14.20;99.90;;;;;;5039736;28;20143;-72
2023/08/14 04:26:58;;;;;;;21.58;12.52;;;14.20;99.90;;;;;;5048457;28;268419;-72
2023/08/14 04:29:25;;;;;;;20.85;13.02;;;14.20;99.90;;;;;;5057927;28;20048;-72
2023/08/14 04:31:51;;;;;;;20.92;14.07;;;14.20;99.90;;;;;;5049652;28;271052;-72
2023/08/14 04:34:17;;;;;;;24.20;13.68;;;14.20;99.90;;;;;;5075853;28;20048;-72
2023/08/14 04:36:43;;;;;;;25.35;14.18;;;14.20;99.90;;;;;;5043739;28;268082;-73
2023/08/14 04:39:09;;;;;;;27.27;14.90;;;14.20;99.90;;;;;;5057106;28;20454;-72
2023/08/14 04:41:36;;;;;;;23.88;14.00;;;14.30;99.90;;;;;;5049045;28;258056;-72
2023/08/14 04:44:02;;;;;;;21.95;13.60;;;14.40;99.90;;;;;;5057200;28;20055;-73
2023/08/14 04:46:35;;;;;;;22.23;13.55;;;14.40;99.90;;;;;;5066224;28;20064;-73
2023/08/14 04:49:03;;;;;;;23.50;13.68;;;14.50;99.90;;;;;;5039431;28;20040;-72
2023/08/14 04:51:30;;;;;;;20.35;12.43;;;14.50;99.90;;;;;;5064717;28;20048;-72
2023/08/14 04:53:58;;;;;;;19.75;13.30;;;14.60;99.90;;;;;;5028364;28;116932;-72
2023/08/14 04:56:25;;;;;;;21.88;13.15;;;14.60;99.90;;;;;;5068320;28;20447;-72
2023/08/14 04:58:52;;;;;;;24.85;13.25;;;14.70;99.90;;;;;;5051187;28;273334;-72
2023/08/14 05:01:18;;;;;;;19.50;12.88;;;14.80;99.90;;;;;;5061267;28;20056;-73
2023/08/14 05:03:44;;;;;;;19.13;13.30;;;14.90;99.90;;;;;;5053825;28;260985;-72
2023/08/14 05:06:10;;;;;;;21.95;12.88;;;14.90;99.90;;;;;;5064380;28;20044;-73
2023/08/14 05:08:38;;;;;;;17.83;12.13;;;15.00;99.90;;;;;;5036923;28;221132;-72
2023/08/14 05:11:04;;;;;;;17.92;11.60;;;15.00;99.90;;;;;;5067729;28;20067;-73
2023/08/14 05:13:30;;;;;;;21.67;13.35;;;15.10;99.90;;;;;;5060729;28;273094;-74
2023/08/14 05:15:56;;;;;;;19.45;12.40;;;15.10;99.90;;;;;;5062913;28;20040;-73
2023/08/14 05:18:22;;;;;;;19.08;11.80;;;15.10;99.90;;;;;;5056559;28;254272;-73
2023/08/14 05:20:50;;;;;;;21.95;12.23;;;15.20;99.90;;;;;;5066782;28;20431;-73
2023/08/14 05:23:16;;;;;;;18.30;12.05;;;15.20;99.90;;;;;;5050793;28;20053;-71
2023/08/14 05:25:43;;;;;;;20.10;11.95;;;15.30;99.90;;;;;;5061948;28;20439;-72
2023/08/14 05:28:10;;;;;;;20.77;12.60;;;15.40;99.90;;;;;;5059922;28;273723;-72
2023/08/14 05:30:36;;;;;;;17.70;12.05;;;15.50;99.90;;;;;;5071272;28;20056;-72
2023/08/14 05:33:03;;;;;;;18.02;10.65;;;15.80;99.90;;;;;;5054364;28;256644;-72
2023/08/14 05:35:30;;;;;;;18.33;10.68;;;16.20;99.90;;;;;;5064219;28;20056;-72
2023/08/14 05:37:56;;;;;;;17.65;10.05;;;16.40;99.90;;;;;;5059113;28;271577;-71
2023/08/14 05:40:23;;;;;;;16.25;9.85;;;16.40;99.90;;;;;;5072496;28;20059;-71
2023/08/14 05:43:09;;;;;;;18.90;10.23;;;16.40;99.90;;;;;;5056717;28;255529;-71
2023/08/14 05:45:45;;;;;;;17.17;9.75;;;16.40;99.90;;;;;;5063379;28;20056;-71
2023/08/14 05:48:13;;;;;;;18.80;10.18;;;16.40;99.90;;;;;;5042228;28;271441;-71
2023/08/14 05:50:40;;;;;;;18.02;10.15;;;16.40;99.90;;;;;;5065613;28;20512;-72
2023/08/14 05:53:07;;;;;;;16.73;9.98;;;16.40;99.90;;;;;;5028642;28;263299;-72
2023/08/14 05:55:35;;;;;;;18.20;10.30;;;16.50;99.90;;;;;;5068720;28;20056;-72
2023/08/14 05:58:02;;;;;;;16.80;10.13;;;16.60;99.90;;;;;;5055228;28;257914;-72
2023/08/14 06:00:29;;;;;;;17.33;10.20;;;16.60;99.90;;;;;;5065589;28;20680;-72
2023/08/14 06:02:55;;;;;;;17.58;10.02;;;16.70;99.90;;;;;;5043631;28;254629;-72
2023/08/14 06:05:22;;;;;;;15.80;9.90;;;16.70;99.90;;;;;;5067270;28;20049;-72
2023/08/14 06:07:52;;;;;;;18.38;10.25;;;16.80;99.90;;;;;;5055958;28;259026;-73
2023/08/14 06:10:19;;;;;;;16.13;9.65;;;16.90;99.90;;;;;;5067039;28;20079;-73
2023/08/14 06:12:46;;;;;;;17.80;10.07;;;16.90;99.90;;;;;;5055682;28;258854;-71
2023/08/14 06:15:12;;;;;;;16.67;9.48;;;17.00;99.90;;;;;;5076124;28;20053;-72
2023/08/14 06:17:39;;;;;;;15.30;9.77;;;17.10;99.90;;;;;;5048693;28;273317;-73
2023/08/14 06:20:06;;;;;;;16.67;9.68;;;17.20;99.90;;;;;;5077313;28;20061;-73
2023/08/14 06:22:32;;;;;;;17.50;9.75;;;17.20;99.90;;;;;;5052881;28;265532;-73
2023/08/14 06:24:58;;;;;;;16.35;9.60;;;17.20;99.90;;;;;;5074586;28;20060;-73
2023/08/14 06:27:24;;;;;;;16.05;9.73;;;17.20;99.90;;;;;;5058071;28;258480;-72
2023/08/14 06:29:50;;;;;;;16.98;9.80;;;17.20;99.90;;;;;;5079195;28;20048;-73
2023/08/14 06:32:16;;;;;;;17.27;10.07;;;17.20;99.90;;;;;;5050714;28;270063;-73
2023/08/14 06:34:42;;;;;;;18.67;10.20;;;17.30;99.90;;;;;;5072968;28;20056;-73
2023/08/14 06:37:08;;;;;;;16.58;9.68;;;17.30;99.90;;;;;;5057098;28;263197;-73
2023/08/14 06:39:34;;;;;;;19.58;9.88;;;17.30;99.90;;;;;;5085911;28;20059;-73
2023/08/14 06:42:00;;;;;;;17.67;9.75;;;17.30;99.90;;;;;;5050901;28;254132;-72
2023/08/14 06:44:28;;;;;;;18.13;10.00;;;17.40;99.90;;;;;;5076354;28;20049;-73
2023/08/14 06:46:54;;;;;;;17.58;9.18;;;17.40;99.90;;;;;;5051934;28;255595;-72
2023/08/14 06:49:20;;;;;;;17.52;9.95;;;17.40;99.90;;;;;;5058828;28;20056;-73
2023/08/14 06:51:46;;;;;;;22.23;9.93;;;17.40;99.90;;;;;;5032984;28;274729;-73
2023/08/14 06:54:12;;;;;;;18.67;10.02;;;17.50;99.90;;;;;;5074143;28;20044;-74
2023/08/14 06:56:38;;;;;;;16.95;9.63;;;17.50;99.90;;;;;;5052105;28;252901;-73
2023/08/14 06:59:04;;;;;;;18.35;9.70;;;17.50;99.90;;;;;;5054410;28;20505;-73
2023/08/14 07:01:31;;;;;;;17.05;9.65;;;17.50;99.90;;;;;;5054875;28;20044;-73
2023/08/14 07:03:57;;;;;;;16.23;9.55;;;17.60;99.90;;;;;;5054922;28;20122;-75
2023/08/14 07:06:23;;;;;;;17.80;10.07;;;17.60;99.90;;;;;;5068925;28;20044;-73
2023/08/14 07:08:50;;;;;;;18.63;10.00;;;17.80;99.90;;;;;;5056356;28;256965;-73
2023/08/14 07:11:16;;;;;;;17.42;9.57;;;18.00;99.90;;;;;;5070226;28;20694;-73
2023/08/14 07:13:42;;;;;;;17.77;8.88;;;18.20;99.90;;;;;;5064147;28;266695;-75
2023/08/14 07:16:08;;;;;;;19.88;8.52;;;18.50;99.90;;;;;;5067311;28;20040;-73
2023/08/14 07:18:34;;;;;;;18.55;9.23;;;18.80;99.90;;;;;;5048681;28;258580;-74
2023/08/14 07:21:00;;;;;;;14.35;8.02;;;19.00;99.90;;;;;;5067857;28;20059;-74
2023/08/14 07:23:26;;;;;;;12.82;7.75;;;19.30;99.90;;;;;;5054336;28;273702;-75
2023/08/14 07:25:52;;;;;;;16.27;7.47;;;19.80;99.90;;;;;;5061754;28;20049;-73
2023/08/14 07:28:18;;;;;;;17.65;6.68;;;20.20;99.90;;;;;;5064321;28;251435;-73
2023/08/14 07:30:44;;;;;;;13.68;5.85;;;20.50;99.90;;;;;;5071202;28;20048;-73
2023/08/14 07:33:13;;;;;;;13.32;5.75;;;20.80;99.90;;;;;;5056744;28;267109;-73
2023/08/14 07:35:39;;;;;;;11.70;5.45;;;21.00;99.90;;;;;;5058693;28;20610;-72
2023/08/14 07:38:05;;;;;;;12.15;5.35;;;21.30;99.90;;;;;;5050634;28;258137;-73
2023/08/14 07:40:31;;;;;;;14.85;5.40;;;21.30;99.90;;;;;;5069329;28;20087;-72
2023/08/14 07:42:58;;;;;;;13.40;5.07;;;21.20;99.90;;;;;;5058945;28;267375;-73
2023/08/14 07:45:24;;;;;;;11.23;4.72;;;21.20;99.90;;;;;;5063820;28;20063;-72
2023/08/14 07:47:50;;;;;;;13.20;4.80;;;21.00;99.90;;;;;;5060539;28;249540;-73
2023/08/14 07:50:16;;;;;;;12.18;4.95;;;21.00;99.90;;;;;;5068205;28;20052;-73
2023/08/14 07:52:42;;;;;;;12.38;4.68;;;21.00;99.90;;;;;;5029529;28;206396;-72
2023/08/14 07:55:08;;;;;;;11.40;4.65;;;20.90;99.90;;;;;;5056547;28;20602;-72
2023/08/14 07:57:34;;;;;;;13.73;4.75;;;20.90;99.90;;;;;;5050766;28;270998;-72
2023/08/14 08:00:00;;;;;;;13.00;4.63;;;21.00;99.90;;;;;;5071929;28;20048;-72
2023/08/14 08:02:27;;;;;;;11.32;4.68;;;20.90;99.90;;;;;;5047455;28;273260;-71
2023/08/14 08:04:53;;;;;;;13.13;4.47;;;20.90;99.90;;;;;;5075270;28;20061;-73
2023/08/14 08:07:19;;;;;;;13.05;4.40;;;21.00;99.90;;;;;;5047163;28;258168;-73
2023/08/14 08:09:45;;;;;;;13.07;4.10;;;21.00;99.90;;;;;;5075789;28;20056;-73
2023/08/14 08:12:11;;;;;;;12.52;4.50;;;21.00;99.90;;;;;;5051337;28;259357;-72
2023/08/14 08:14:37;;;;;;;11.50;3.95;;;21.10;99.90;;;;;;5083388;28;20056;-72
2023/08/14 08:17:03;;;;;;;12.93;3.92;;;21.10;99.90;;;;;;5042994;28;274039;-71
2023/08/14 08:19:29;;;;;;;11.63;3.80;;;21.00;99.90;;;;;;5076914;28;20055;-71
2023/08/14 08:21:55;;;;;;;10.50;3.90;;;21.30;99.90;;;;;;5050079;28;267023;-71
2023/08/14 08:24:21;;;;;;;11.00;3.72;;;21.50;99.90;;;;;;5073411;28;20083;-72
2023/08/14 08:26:48;;;;;;;12.93;3.92;;;21.90;99.90;;;;;;5050042;28;251855;-72
2023/08/14 08:29:14;;;;;;;11.60;3.30;;;22.40;99.90;;;;;;5076396;28;20043;-72
2023/08/14 08:31:41;;;;;;;8.30;3.38;;;22.50;99.90;;;;;;5050144;28;256412;-72
2023/08/14 08:34:07;;;;;;;11.10;3.47;;;22.70;99.90;;;;;;5080290;28;20057;-72
2023/08/14 08:36:33;;;;;;;10.68;3.20;;;23.00;99.90;;;;;;5062140;28;20056;-72
2023/08/14 08:38:59;;;;;;;10.35;2.70;;;23.30;99.90;;;;;;5048494;28;174142;-71
2023/08/14 08:41:31;;;;;;;10.73;2.70;;;23.60;99.90;;;;;;5048285;28;20053;-72
2023/08/14 08:44:30;;;;;;;8.93;2.58;;;24.30;99.90;;;;;;5041854;28;273854;-72
2023/08/14 08:47:09;;;;;;;11.40;2.72;;;24.70;99.90;;;;;;5032630;28;275317;-74
2023/08/14 08:49:36;;;;;;;10.05;2.40;;;25.10;99.90;;;;;;5062078;28;20056;-72
2023/08/14 08:52:03;;;;;;;10.15;2.40;;;25.40;99.90;;;;;;5036779;28;258340;-73
2023/08/14 08:54:31;;;;;;;11.13;2.47;;;25.10;99.90;;;;;;5069906;28;20055;-72
2023/08/14 08:56:58;;;;;;;10.10;2.38;;;24.20;99.90;;;;;;5049679;28;261141;-72
2023/08/14 08:59:25;;;;;;;11.65;2.75;;;23.70;99.90;;;;;;5071005;28;20049;-72
2023/08/14 09:01:52;;;;;;;9.50;2.50;;;23.30;99.90;;;;;;5036032;28;272651;-73
2023/08/14 09:04:18;;;;;;;11.30;3.05;;;23.10;99.90;;;;;;5075875;28;20040;-72
2023/08/14 09:06:44;;;;;;;9.82;2.67;;;23.30;99.90;;;;;;5060420;28;281449;-74
2023/08/14 09:09:12;;;;;;;10.00;2.83;;;23.40;99.90;;;;;;5074254;28;20080;-72
2023/08/14 09:11:39;;;;;;;10.35;2.70;;;24.10;99.90;;;;;;5049044;28;269873;-72
2023/08/14 09:14:05;;;;;;;8.45;2.45;;;24.80;99.90;;;;;;5082137;28;20051;-72
2023/08/14 09:16:32;;;;;;;12.48;2.40;;;25.40;99.90;;;;;;5066008;28;20675;-72
2023/08/14 09:18:59;;;;;;;11.60;2.55;;;26.10;99.90;;;;;;5056760;28;271947;-74
2023/08/14 09:21:29;;;;;;;9.65;2.10;;;26.30;99.90;;;;;;5068467;28;20487;-72
2023/08/14 09:23:55;;;;;;;9.17;2.00;;;26.50;99.90;;;;;;5055359;28;275226;-72
2023/08/14 09:26:22;;;;;;;8.45;1.90;;;26.40;99.90;;;;;;5061657;28;20052;-72
2023/08/14 09:28:49;;;;;;;9.13;2.00;;;26.90;99.90;;;;;;5056834;28;257718;-74
2023/08/14 09:31:15;;;;;;;10.57;1.83;;;27.50;99.90;;;;;;5067538;28;20045;-72
2023/08/14 09:33:44;;;;;;;9.43;1.88;;;27.40;98.70;;;;;;5054883;28;277300;-72
2023/08/14 09:36:11;;;;;;;8.18;1.55;;;27.40;99.90;;;;;;5060132;28;20064;-72
2023/08/14 09:38:38;;;;;;;7.85;1.73;;;27.70;99.90;;;;;;5054237;28;276427;-72
2023/08/14 09:41:04;;;;;;;8.00;1.60;;;27.90;99.50;;;;;;5060524;28;20414;-72
2023/08/14 09:43:32;;;;;;;8.05;1.55;;;27.70;98.60;;;;;;5060635;28;277694;-74
2023/08/14 09:46:02;;;;;;;8.27;2.10;;;27.60;98.10;;;;;;5066353;28;20064;-72
2023/08/14 09:48:48;;;;;;;7.30;1.83;;;27.60;97.10;;;;;;5060578;28;270008;-73
2023/08/14 09:51:18;;;;;;;8.82;1.67;;;27.40;96.50;;;;;;5064783;28;20068;-72
2023/08/14 09:53:52;;;;;;;8.00;1.80;;;28.10;96.00;;;;;;5051388;28;263216;-72
2023/08/14 09:56:19;;;;;;;9.98;1.90;;;28.30;97.00;;;;;;5069080;28;20407;-72
2023/08/14 09:58:49;;;;;;;8.45;1.95;;;28.90;97.30;;;;;;5058988;28;261587;-74
2023/08/14 10:01:17;;;;;;;9.70;1.75;;;29.10;97.40;;;;;;5062116;28;20052;-73
2023/08/14 10:03:46;;;;;;;8.88;1.70;;;29.10;97.20;;;;;;5066246;28;63760;-73
2023/08/14 10:06:13;;;;;;;8.32;1.70;;;29.00;96.70;;;;;;5062006;28;20056;-73
2023/08/14 10:08:43;;;;;;;9.00;1.60;;;29.00;96.60;;;;;;5050623;28;23385;-73
2023/08/14 10:11:13;;;;;;;7.50;1.60;;;29.40;95.10;;;;;;5071245;28;20048;-73
2023/08/14 10:13:45;;;;;;;9.32;1.60;;;29.30;95.60;;;;;;5058004;28;243095;-73
2023/08/14 10:16:16;;;;;;;7.72;1.45;;;29.90;94.40;;;;;;5067337;28;20067;-75
2023/08/14 10:18:44;;;;;;;9.48;1.58;;;29.80;95.40;;;;;;5023813;28;211403;-72
2023/08/14 10:21:14;;;;;;;8.40;1.80;;;30.40;95.40;;;;;;5069642;28;20052;-73
2023/08/14 10:23:41;;;;;;;;;;;30.10;94.90;;;;;;5057211;28;83746;-73
2023/08/14 10:26:07;;;;;;;7.22;1.60;;;29.20;93.20;;;;;;5065466;28;19920;-73
2023/08/14 10:28:34;;;;;;;9.70;1.85;;;29.30;95.00;;;;;;5056674;28;177444;-73
2023/08/14 10:31:01;;;;;;;8.13;1.50;;;29.30;95.60;;;;;;5070563;28;20045;-71
2023/08/14 10:33:27;;;;;;;7.72;1.67;;;29.00;94.70;;;;;;5062088;28;273578;-73
2023/08/14 10:35:55;;;;;;;9.07;1.75;;;28.60;94.70;;;;;;5059983;28;20060;-73
2023/08/14 10:38:25;;;;;;;8.27;1.70;;;28.60;95.20;;;;;;5064671;28;253410;-74
2023/08/14 10:41:05;;;;;;;9.55;1.90;;;28.90;94.70;;;;;;5068878;28;20538;-73
2023/08/14 10:43:31;;;;;;;9.00;1.85;;;28.70;94.80;;;;;;5067273;28;263369;-72
2023/08/14 10:45:58;;;;;;;7.97;1.83;;;29.20;94.60;;;;;;5069712;28;20063;-74
2023/08/14 10:48:24;;;;;;;7.47;1.70;;;29.50;95.10;;;;;;5065334;28;266402;-72
2023/08/14 10:51:00;;;;;;;10.95;1.70;;;30.00;95.30;;;;;;5070026;28;20063;-72
2023/08/14 10:53:26;;;;;;;10.02;1.80;;;30.70;94.40;;;;;;5029987;28;258631;-73
2023/08/14 10:55:52;;;;;;;10.18;1.83;;;31.00;94.20;;;;;;5071509;28;20059;-74
2023/08/14 10:58:36;;;;;;;7.45;1.48;;;31.60;93.60;;;;;;5052819;28;275711;-73
2023/08/14 11:01:09;;;;;;;8.07;1.80;;;31.80;92.50;;;;;;5065072;28;20045;-73
2023/08/14 11:04:03;;;;;;;9.15;1.58;;;31.60;93.90;;;;;;5054943;28;106788;-73
2023/08/14 11:07:01;;;;;;;9.27;1.80;;;31.10;92.90;;;;;;5065465;28;20056;-73
2023/08/14 11:09:37;;;;;;;7.55;1.50;;;30.20;92.60;;;;;;5048911;28;20045;-73
2023/08/14 11:12:08;;;;;;;7.93;1.83;;;29.70;94.10;;;;;;5058425;28;20410;-73
2023/08/14 11:14:36;;;;;;;9.52;1.65;;;29.60;93.70;;;;;;5074537;28;20049;-73
2023/08/14 11:17:03;;;;;;;7.53;1.58;;;29.80;94.20;;;;;;5050875;28;245000;-72
2023/08/14 11:19:29;;;;;;;7.68;1.80;;;29.60;93.80;;;;;;5069478;28;20076;-73
2023/08/14 11:21:56;;;;;;;8.05;1.70;;;29.90;93.80;;;;;;5045291;28;269889;-72
2023/08/14 11:24:22;;;;;;;8.18;1.60;;;30.00;93.00;;;;;;5062229;28;20687;-72
2023/08/14 11:26:48;;;;;;;6.68;1.40;;;29.40;93.20;;;;;;5050192;28;269269;-73
2023/08/14 11:29:14;;;;;;;11.00;2.03;;;29.00;94.00;;;;;;5058902;28;20123;-72
2023/08/14 11:31:44;;;;;;;10.45;2.28;;;28.90;93.70;;;;;;5047772;28;264968;-72
2023/08/14 11:34:10;;;;;;;8.65;1.65;;;28.70;93.40;;;;;;5067881;28;20071;-72
2023/08/14 11:36:40;;;;;;;7.57;1.60;;;28.30;94.30;;;;;;5053998;28;268696;-72
2023/08/14 11:39:06;;;;;;;9.07;1.70;;;28.90;94.40;;;;;;5066455;28;20052;-74
2023/08/14 11:41:34;;;;;;;9.32;1.58;;;29.70;93.50;;;;;;5062594;28;20701;-74
2023/08/14 11:44:00;;;;;;;9.38;1.70;;;30.20;93.60;;;;;;5050868;28;196668;-72
2023/08/14 11:46:26;;;;;;;7.65;1.50;;;30.70;93.40;;;;;;5069326;28;20061;-72
2023/08/14 11:48:52;;;;;;;9.07;1.70;;;30.80;93.10;;;;;;5054659;28;22916;-73
2023/08/14 11:51:19;;;;;;;6.70;1.40;;;31.40;93.50;;;;;;5070392;28;20554;-73
2023/08/14 11:53:46;;;;;;;7.90;1.60;;;32.10;93.10;;;;;;5041896;28;265079;-73
2023/08/14 11:56:12;;;;;;;7.57;1.58;;;32.50;92.90;;;;;;5067716;28;20056;-73
2023/08/14 11:58:39;;;;;;;9.27;1.50;;;32.70;92.30;;;;;;5052040;28;273551;-72
2023/08/14 12:01:05;;;;;;;6.15;1.30;;;33.00;91.40;;;;;;5068755;28;20406;-71
2023/08/14 12:03:31;;;;;;;7.50;1.48;;;32.80;91.10;;;;;;5048506;28;210213;-73
2023/08/14 12:06:04;;;;;;;7.72;1.50;;;32.00;90.30;;;;;;5068927;28;20056;-71
2023/08/14 12:08:31;;;;;;;9.07;1.60;;;31.00;90.80;;;;;;5041065;28;102720;-71
2023/08/14 12:11:00;;;;;;;9.20;1.60;;;30.90;92.00;;;;;;5014113;28;20056;-72
2023/08/14 12:13:31;;;;;;;8.00;1.30;;;30.60;91.10;;;;;;5048669;28;57121;-72
2023/08/14 12:16:06;;;;;;;8.02;1.67;;;30.30;91.70;;;;;;5062470;28;20090;-72
2023/08/14 12:18:32;;;;;;;9.68;1.88;;;30.10;91.70;;;;;;5058009;28;259227;-71
2023/08/14 12:20:58;;;;;;;7.38;1.58;;;30.20;91.60;;;;;;5067220;28;20419;-71
2023/08/14 12:23:25;;;;;;;6.57;1.50;;;30.10;91.60;;;;;;5059094;28;254465;-71
2023/08/14 12:25:52;;;;;;;7.75;1.67;;;29.90;91.60;;;;;;5066774;28;20064;-71
2023/08/14 12:28:20;;;;;;;9.75;1.48;;;29.50;92.40;;;;;;5063504;28;258779;-72
2023/08/14 12:30:49;;;;;;;7.97;1.77;;;30.10;92.40;;;;;;5065330;28;20052;-71
2023/08/14 12:33:16;;;;;;;8.18;1.58;;;30.10;91.90;;;;;;5062367;28;271242;-71
2023/08/14 12:35:42;;;;;;;9.98;1.70;;;30.40;92.30;;;;;;5068646;28;20067;-72